Time;durP1;ratioP1;P1;durP2;ratioP2;P2;SDS_P1;SDS_P2;PMS_P1;PMS_P2;Temp;Humidity;BMP_temperature;BMP_pressure;BME280_temperature;BME280_humidity;BME280_pressure;Samples;Min_cycle;Max_cycle;Signal;HPM_P1;HPM_P2
2023/05/24 00:00:08;;;;;;;5.93;2.58;;;;;;;;;;5080160;28;20234;-52
2023/05/24 00:02:36;;;;;;;7.53;3.17;;;;;;;;;;5084570;28;20792;-52
2023/05/24 00:05:04;;;;;;;5.45;2.63;;;;;;;;;;5086345;28;20708;-52
2023/05/24 00:07:30;;;;;;;7.45;2.60;;;;;;;;;;5088147;28;20417;-51
2023/05/24 00:09:56;;;;;;;4.60;2.42;;;;;;;;;;5086680;28;20238;-52
2023/05/24 00:12:23;;;;;;;6.18;2.60;;;;;;;;;;5085213;28;20230;-51
2023/05/24 00:14:51;;;;;;;5.65;2.97;;;;;;;;;;5088179;28;20231;-52
2023/05/24 00:17:17;;;;;;;6.78;2.63;;;;;;;;;;5083245;28;20253;-52
2023/05/24 00:19:43;;;;;;;8.32;2.72;;;;;;;;;;5083703;28;20227;-51
2023/05/24 00:22:10;;;;;;;6.13;2.53;;;;;;;;;;5072180;28;20566;-51
2023/05/24 00:24:37;;;;;;;6.65;2.30;;;;;;;;;;5067686;28;20234;-51
2023/05/24 00:27:03;;;;;;;5.50;2.25;;;;;;;;;;5086583;28;20681;-51
2023/05/24 00:29:29;;;;;;;3.47;2.53;;;;;;;;;;5085324;28;20234;-52
2023/05/24 00:31:57;;;;;;;4.82;2.65;;;;;;;;;;5076828;28;20249;-51
2023/05/24 00:34:24;;;;;;;8.65;2.53;;;;;;;;;;5079111;28;20230;-51
2023/05/24 00:36:50;;;;;;;7.07;2.70;;;;;;;;;;5076269;28;20231;-52
2023/05/24 00:39:17;;;;;;;8.18;2.38;;;;;;;;;;5077473;28;20300;-51
2023/05/24 00:41:43;;;;;;;6.17;2.33;;;;;;;;;;5081123;28;20230;-52
2023/05/24 00:44:10;;;;;;;5.88;2.67;;;;;;;;;;5088238;28;20227;-52
2023/05/24 00:46:36;;;;;;;6.40;2.25;;;;;;;;;;5083107;28;20234;-53
2023/05/24 00:49:04;;;;;;;6.77;2.47;;;;;;;;;;5085623;28;20235;-52
2023/05/24 00:51:32;;;;;;;6.53;2.33;;;;;;;;;;5075272;28;20258;-53
2023/05/24 00:53:59;;;;;;;4.35;2.42;;;;;;;;;;5084437;28;20245;-51
2023/05/24 00:56:26;;;;;;;7.57;2.33;;;;;;;;;;5086434;28;20230;-51
2023/05/24 00:58:54;;;;;;;6.18;2.65;;;;;;;;;;5074658;28;20334;-54
2023/05/24 01:01:24;;;;;;;8.20;2.20;;;;;;;;;;5083209;28;20250;-51
2023/05/24 01:03:51;;;;;;;6.15;2.47;;;;;;;;;;5084594;28;20237;-52
2023/05/24 01:06:19;;;;;;;5.25;2.97;;;;;;;;;;5081528;28;20234;-53
2023/05/24 01:08:54;;;;;;;6.93;2.70;;;;;;;;;;5082491;28;20237;-52
2023/05/24 01:11:26;;;;;;;6.10;3.88;;;;;;;;;;5081850;28;20718;-51
2023/05/24 01:13:58;;;;;;;4.32;2.05;;;;;;;;;;5071370;28;20383;-52
2023/05/24 01:16:27;;;;;;;6.47;2.78;;;;;;;;;;5079470;28;20293;-52
2023/05/24 01:18:56;;;;;;;4.65;2.20;;;;;;;;;;5083981;28;20230;-53
2023/05/24 01:21:33;;;;;;;7.43;3.10;;;;;;;;;;5086632;28;20226;-51
2023/05/24 01:24:05;;;;;;;8.20;3.10;;;;;;;;;;5078918;28;20279;-54
2023/05/24 01:26:37;;;;;;;5.35;2.25;;;;;;;;;;5082810;28;20234;-52
2023/05/24 01:29:06;;;;;;;6.15;3.17;;;;;;;;;;5083284;28;20246;-52
2023/05/24 01:31:34;;;;;;;10.63;2.78;;;;;;;;;;5080664;28;20234;-53
2023/05/24 01:34:01;;;;;;;6.82;2.65;;;;;;;;;;5083169;28;20237;-51
2023/05/24 01:36:27;;;;;;;7.30;2.63;;;;;;;;;;5074500;28;20940;-53
2023/05/24 01:38:54;;;;;;;10.73;2.80;;;;;;;;;;5070903;28;20254;-51
2023/05/24 01:41:26;;;;;;;6.60;2.47;;;;;;;;;;5079165;28;20226;-52
2023/05/24 01:43:55;;;;;;;8.77;2.50;;;;;;;;;;5083046;28;20230;-52
2023/05/24 01:46:29;;;;;;;4.40;2.47;;;;;;;;;;5078225;28;20234;-51
2023/05/24 01:49:01;;;;;;;3.78;1.90;;;;;;;;;;5078163;28;20226;-52
2023/05/24 01:51:30;;;;;;;6.97;2.42;;;;;;;;;;5075233;28;20231;-50
2023/05/24 01:53:58;;;;;;;5.82;2.10;;;;;;;;;;5075720;28;20231;-51
2023/05/24 01:56:26;;;;;;;6.65;2.33;;;;;;;;;;5076483;28;20226;-52
2023/05/24 01:58:54;;;;;;;5.65;3.47;;;;;;;;;;5073683;28;20230;-53
2023/05/24 02:01:21;;;;;;;10.95;3.00;;;;;;;;;;5080840;28;20367;-51
2023/05/24 02:03:49;;;;;;;6.40;2.35;;;;;;;;;;5075332;28;20518;-55
2023/05/24 02:06:16;;;;;;;7.85;2.90;;;;;;;;;;5072651;28;20223;-52
2023/05/24 02:08:43;;;;;;;10.02;2.53;;;;;;;;;;5080861;28;20230;-52
2023/05/24 02:11:09;;;;;;;7.20;2.47;;;;;;;;;;5077491;28;20719;-50
2023/05/24 02:13:36;;;;;;;6.65;2.38;;;;;;;;;;5076798;28;20592;-52
2023/05/24 02:16:03;;;;;;;6.65;1.83;;;;;;;;;;5087443;28;20325;-51
2023/05/24 02:18:33;;;;;;;6.22;2.50;;;;;;;;;;5090291;28;20222;-51
2023/05/24 02:21:02;;;;;;;9.40;3.00;;;;;;;;;;5092955;28;20260;-52
2023/05/24 02:23:28;;;;;;;7.45;2.13;;;;;;;;;;5088241;28;20295;-52
2023/05/24 02:25:55;;;;;;;6.63;2.35;;;;;;;;;;5094584;28;20226;-52
2023/05/24 02:28:22;;;;;;;10.18;2.65;;;;;;;;;;5081113;28;20318;-51
2023/05/24 02:30:48;;;;;;;5.43;2.40;;;;;;;;;;5075213;28;20237;-54
2023/05/24 02:33:15;;;;;;;12.88;3.88;;;;;;;;;;5082188;28;20700;-50
2023/05/24 02:35:42;;;;;;;8.07;3.00;;;;;;;;;;5082222;28;20800;-52
2023/05/24 02:38:10;;;;;;;6.07;2.22;;;;;;;;;;5079359;28;21854;-51
2023/05/24 02:40:37;;;;;;;6.05;2.35;;;;;;;;;;5078108;28;20231;-52
2023/05/24 02:43:03;;;;;;;5.43;2.58;;;;;;;;;;5074892;28;20230;-54
2023/05/24 02:45:30;;;;;;;4.10;2.15;;;;;;;;;;5079858;28;20246;-50
2023/05/24 02:47:56;;;;;;;7.28;2.30;;;;;;;;;;5078629;28;20242;-51
2023/05/24 02:50:23;;;;;;;10.45;2.75;;;;;;;;;;5082153;28;20235;-52
2023/05/24 02:52:50;;;;;;;8.15;2.83;;;;;;;;;;5074934;28;20234;-53
2023/05/24 02:55:18;;;;;;;6.93;2.60;;;;;;;;;;5078584;28;20230;-52
2023/05/24 02:57:46;;;;;;;8.15;3.53;;;;;;;;;;5078293;28;20250;-51
2023/05/24 03:00:13;;;;;;;8.77;2.85;;;;;;;;;;5074035;28;20276;-53
2023/05/24 03:02:40;;;;;;;9.18;2.90;;;;;;;;;;5071830;28;20313;-51
2023/05/24 03:05:07;;;;;;;7.78;2.90;;;;;;;;;;5085803;28;20230;-51
2023/05/24 03:07:34;;;;;;;9.55;3.17;;;;;;;;;;5082086;28;20235;-51
2023/05/24 03:10:01;;;;;;;7.30;2.80;;;;;;;;;;5084236;28;20230;-51
2023/05/24 03:12:29;;;;;;;8.55;3.38;;;;;;;;;;5084897;27;20226;-50
2023/05/24 03:14:56;;;;;;;7.00;2.97;;;;;;;;;;5085872;28;20230;-52
2023/05/24 03:17:22;;;;;;;7.90;2.92;;;;;;;;;;5079255;28;20225;-52
2023/05/24 03:19:49;;;;;;;11.45;3.85;;;;;;;;;;5086764;28;20230;-52
2023/05/24 03:22:16;;;;;;;6.63;2.88;;;;;;;;;;5088452;28;20229;-52
2023/05/24 03:24:42;;;;;;;6.07;2.80;;;;;;;;;;5094457;28;20245;-54
2023/05/24 03:27:09;;;;;;;7.88;2.70;;;;;;;;;;5093509;28;20283;-53
2023/05/24 03:29:37;;;;;;;5.38;2.40;;;;;;;;;;5090384;28;20246;-52
2023/05/24 03:32:04;;;;;;;10.02;3.85;;;;;;;;;;5092801;28;20311;-52
2023/05/24 03:34:31;;;;;;;17.92;3.90;;;;;;;;;;5086579;28;20241;-51
2023/05/24 03:36:58;;;;;;;6.63;3.42;;;;;;;;;;5085192;28;20237;-52
2023/05/24 03:39:24;;;;;;;8.60;3.03;;;;;;;;;;5079206;28;20272;-51
2023/05/24 03:41:51;;;;;;;9.55;3.28;;;;;;;;;;5081038;28;20708;-50
2023/05/24 03:44:17;;;;;;;10.45;3.25;;;;;;;;;;5077857;28;20772;-52
2023/05/24 03:46:45;;;;;;;14.13;3.38;;;;;;;;;;5083120;28;20230;-52
2023/05/24 03:49:12;;;;;;;12.30;3.95;;;;;;;;;;5080728;28;20234;-53
2023/05/24 03:51:38;;;;;;;5.60;2.50;;;;;;;;;;5074053;28;20227;-51
2023/05/24 03:54:05;;;;;;;8.55;2.25;;;;;;;;;;5081082;28;20258;-51
2023/05/24 03:56:31;;;;;;;4.55;2.70;;;;;;;;;;5083475;28;20234;-51
2023/05/24 03:58:59;;;;;;;5.63;2.42;;;;;;;;;;5084660;28;20226;-51
2023/05/24 04:01:26;;;;;;;8.27;2.58;;;;;;;;;;5078649;28;20227;-51
2023/05/24 04:03:55;;;;;;;5.80;2.78;;;;;;;;;;5081975;28;20250;-52
2023/05/24 04:06:27;;;;;;;8.05;3.05;;;;;;;;;;5082015;28;20699;-51
2023/05/24 04:08:54;;;;;;;8.55;2.85;;;;;;;;;;5078774;28;20254;-52
2023/05/24 04:11:21;;;;;;;5.70;2.67;;;;;;;;;;5084295;28;20226;-53
2023/05/24 04:13:48;;;;;;;4.45;2.70;;;;;;;;;;5085565;28;20226;-52
2023/05/24 04:16:15;;;;;;;5.57;2.75;;;;;;;;;;5079828;28;20222;-51
2023/05/24 04:18:41;;;;;;;9.77;2.58;;;;;;;;;;5084293;28;20720;-52
2023/05/24 04:21:09;;;;;;;11.70;4.13;;;;;;;;;;5084617;28;20226;-51
2023/05/24 04:23:36;;;;;;;10.05;2.97;;;;;;;;;;5077141;28;20231;-52
2023/05/24 04:26:02;;;;;;;11.43;3.83;;;;;;;;;;5083544;28;20230;-51
2023/05/24 04:28:30;;;;;;;12.43;3.55;;;;;;;;;;5083936;28;20727;-51
2023/05/24 04:30:57;;;;;;;5.50;3.22;;;;;;;;;;5077646;28;20835;-52
2023/05/24 04:33:24;;;;;;;11.67;3.67;;;;;;;;;;5078229;28;20720;-55
2023/05/24 04:35:52;;;;;;;10.17;3.20;;;;;;;;;;5073190;28;20231;-54
2023/05/24 04:38:20;;;;;;;9.77;3.30;;;;;;;;;;5076588;28;20238;-51
2023/05/24 04:40:46;;;;;;;5.60;2.72;;;;;;;;;;5082582;28;20237;-53
2023/05/24 04:43:13;;;;;;;8.63;3.70;;;;;;;;;;5078040;28;20704;-51
2023/05/24 04:45:40;;;;;;;8.73;3.40;;;;;;;;;;5075662;28;23151;-52
2023/05/24 04:48:07;;;;;;;11.67;3.30;;;;;;;;;;5074142;28;20230;-52
2023/05/24 04:50:34;;;;;;;8.03;3.23;;;;;;;;;;5076306;28;20258;-52
2023/05/24 04:53:01;;;;;;;10.85;3.20;;;;;;;;;;5080222;28;20711;-52
2023/05/24 04:55:29;;;;;;;6.13;2.90;;;;;;;;;;5083018;28;20218;-51
2023/05/24 04:57:55;;;;;;;11.70;3.28;;;;;;;;;;5077956;28;20235;-51
2023/05/24 05:00:22;;;;;;;13.02;5.07;;;;;;;;;;5080071;28;20222;-50
2023/05/24 05:02:49;;;;;;;11.30;4.40;;;;;;;;;;5083157;28;20241;-51
2023/05/24 05:05:15;;;;;;;10.67;3.90;;;;;;;;;;5081464;28;20305;-53
2023/05/24 05:07:42;;;;;;;11.60;3.65;;;;;;;;;;5083465;28;20284;-51
2023/05/24 05:10:09;;;;;;;5.93;3.40;;;;;;;;;;5083715;28;20231;-51
2023/05/24 05:12:37;;;;;;;22.20;4.93;;;;;;;;;;5080570;28;20349;-52
2023/05/24 05:15:04;;;;;;;9.93;3.30;;;;;;;;;;5079712;28;20630;-51
2023/05/24 05:17:31;;;;;;;6.37;3.33;;;;;;;;;;5082965;28;20242;-52
2023/05/24 05:19:57;;;;;;;11.68;3.80;;;;;;;;;;5082603;28;20234;-51
2023/05/24 05:22:24;;;;;;;9.88;3.85;;;;;;;;;;5074856;28;20604;-50
2023/05/24 05:24:51;;;;;;;10.70;4.00;;;;;;;;;;5074138;28;20954;-55
2023/05/24 05:27:18;;;;;;;10.90;3.80;;;;;;;;;;5083728;28;20325;-51
2023/05/24 05:29:46;;;;;;;11.30;3.55;;;;;;;;;;5082020;28;20230;-52
2023/05/24 05:32:13;;;;;;;11.57;4.05;;;;;;;;;;5076811;28;20716;-52
2023/05/24 05:34:39;;;;;;;6.93;3.22;;;;;;;;;;5078806;28;20265;-52
2023/05/24 05:37:06;;;;;;;8.40;3.87;;;;;;;;;;5079265;28;20227;-53
2023/05/24 05:39:33;;;;;;;10.02;3.65;;;;;;;;;;5073406;28;20313;-51
2023/05/24 05:42:01;;;;;;;17.55;5.03;;;;;;;;;;5079701;28;20315;-51
2023/05/24 05:44:28;;;;;;;11.65;5.03;;;;;;;;;;5077854;28;20246;-52
2023/05/24 05:46:56;;;;;;;15.32;4.28;;;;;;;;;;5081294;28;20230;-52
2023/05/24 05:49:22;;;;;;;13.07;3.88;;;;;;;;;;5081995;28;20234;-53
2023/05/24 05:51:49;;;;;;;11.98;4.65;;;;;;;;;;5078603;28;20241;-51
2023/05/24 05:54:17;;;;;;;10.55;4.28;;;;;;;;;;5082180;28;20257;-54
2023/05/24 05:56:46;;;;;;;16.52;4.88;;;;;;;;;;5078032;28;20251;-52
2023/05/24 05:59:13;;;;;;;13.63;5.25;;;;;;;;;;5081064;28;20306;-53
2023/05/24 06:01:40;;;;;;;13.85;5.38;;;;;;;;;;5079503;28;20230;-52
2023/05/24 06:04:09;;;;;;;10.60;4.50;;;;;;;;;;5079586;28;20284;-50
2023/05/24 06:06:36;;;;;;;20.83;5.47;;;;;;;;;;5083679;28;20230;-50
2023/05/24 06:09:03;;;;;;;15.88;4.88;;;;;;;;;;5078548;28;20250;-51
2023/05/24 06:11:30;;;;;;;14.27;5.45;;;;;;;;;;5070922;28;20696;-52
2023/05/24 06:13:56;;;;;;;12.85;4.00;;;;;;;;;;5076749;28;20232;-52
2023/05/24 06:16:23;;;;;;;16.47;5.33;;;;;;;;;;5079576;28;20325;-51
2023/05/24 06:18:49;;;;;;;10.75;4.78;;;;;;;;;;5081490;28;20222;-52
2023/05/24 06:21:18;;;;;;;13.18;3.97;;;;;;;;;;5076914;28;20305;-52
2023/05/24 06:23:44;;;;;;;12.85;4.57;;;;;;;;;;5075224;28;20242;-51
2023/05/24 06:26:11;;;;;;;9.13;4.75;;;;;;;;;;5081363;28;20574;-52
2023/05/24 06:28:38;;;;;;;11.38;4.57;;;;;;;;;;5079878;28;20238;-52
2023/05/24 06:31:04;;;;;;;16.67;6.38;;;;;;;;;;5076184;28;20235;-51
2023/05/24 06:33:31;;;;;;;11.65;5.00;;;;;;;;;;5074307;28;20321;-51
2023/05/24 06:35:58;;;;;;;18.63;6.10;;;;;;;;;;5073123;28;20303;-52
2023/05/24 06:38:26;;;;;;;9.63;4.28;;;;;;;;;;5074600;28;20249;-52
2023/05/24 06:40:53;;;;;;;14.57;5.10;;;;;;;;;;5083252;28;20230;-52
2023/05/24 06:43:20;;;;;;;14.07;5.18;;;;;;;;;;5082694;28;20260;-54
2023/05/24 06:45:47;;;;;;;14.95;5.07;;;;;;;;;;5083774;28;20309;-51
2023/05/24 06:48:14;;;;;;;13.63;4.75;;;;;;;;;;5077785;28;20728;-51
2023/05/24 06:50:41;;;;;;;12.77;5.68;;;;;;;;;;5081162;28;20245;-51
2023/05/24 06:53:07;;;;;;;11.43;4.47;;;;;;;;;;5082714;28;20234;-53
2023/05/24 06:55:36;;;;;;;12.15;5.03;;;;;;;;;;5078739;28;20712;-53
2023/05/24 06:58:02;;;;;;;9.85;4.70;;;;;;;;;;5077883;28;20724;-53
2023/05/24 07:00:29;;;;;;;16.58;5.40;;;;;;;;;;5076098;28;20334;-52
2023/05/24 07:02:56;;;;;;;14.18;5.43;;;;;;;;;;5080569;28;20237;-50
2023/05/24 07:05:23;;;;;;;13.38;5.68;;;;;;;;;;5083094;28;20233;-52
2023/05/24 07:07:50;;;;;;;8.30;3.92;;;;;;;;;;5080497;28;20708;-53
2023/05/24 07:10:16;;;;;;;12.00;4.90;;;;;;;;;;5083173;28;20321;-51
2023/05/24 07:12:44;;;;;;;12.32;5.15;;;;;;;;;;5082691;28;21043;-51
2023/05/24 07:15:12;;;;;;;10.70;5.05;;;;;;;;;;5083549;28;20603;-53
2023/05/24 07:17:38;;;;;;;12.30;4.93;;;;;;;;;;5083381;28;20249;-52
2023/05/24 07:20:09;;;;;;;13.95;4.47;;;;;;;;;;5081383;28;20723;-51
2023/05/24 07:22:35;;;;;;;21.42;6.78;;;;;;;;;;5080488;28;20989;-52
2023/05/24 07:25:03;;;;;;;14.68;5.18;;;;;;;;;;5075334;28;20234;-51
2023/05/24 07:27:30;;;;;;;18.40;5.18;;;;;;;;;;5077296;28;20231;-50
2023/05/24 07:29:58;;;;;;;9.65;4.70;;;;;;;;;;5079162;28;20719;-51
2023/05/24 07:32:24;;;;;;;12.90;5.22;;;;;;;;;;5082879;28;20334;-52
2023/05/24 07:34:51;;;;;;;16.63;5.82;;;;;;;;;;5088716;28;20234;-51
2023/05/24 07:37:18;;;;;;;15.45;5.85;;;;;;;;;;5083996;28;20237;-52
2023/05/24 07:39:44;;;;;;;12.82;5.28;;;;;;;;;;5088380;28;20280;-52
2023/05/24 07:42:11;;;;;;;14.90;4.85;;;;;;;;;;5082791;28;20237;-55
2023/05/24 07:44:37;;;;;;;13.13;4.85;;;;;;;;;;5083980;28;20242;-54
2023/05/24 07:47:06;;;;;;;18.90;6.05;;;;;;;;;;5082873;28;20230;-53
2023/05/24 07:49:32;;;;;;;18.92;6.20;;;;;;;;;;5085612;28;20230;-54
2023/05/24 07:51:59;;;;;;;14.32;5.68;;;;;;;;;;5082852;28;20307;-51
2023/05/24 07:54:26;;;;;;;17.48;4.75;;;;;;;;;;5078415;28;20237;-53
2023/05/24 07:56:53;;;;;;;20.98;6.97;;;;;;;;;;5083578;28;20736;-51
2023/05/24 07:59:20;;;;;;;14.10;5.70;;;;;;;;;;5083993;28;20230;-52
2023/05/24 08:01:47;;;;;;;20.33;6.68;;;;;;;;;;5082898;28;20287;-52
2023/05/24 08:04:15;;;;;;;10.93;5.70;;;;;;;;;;5073121;28;20234;-51
2023/05/24 08:06:41;;;;;;;18.27;6.78;;;;;;;;;;5080195;28;20227;-52
2023/05/24 08:09:08;;;;;;;13.65;5.32;;;;;;;;;;5082568;28;20612;-51
2023/05/24 08:11:35;;;;;;;21.67;6.38;;;;;;;;;;5077648;28;20243;-51
2023/05/24 08:14:02;;;;;;;18.60;5.75;;;;;;;;;;5080703;28;20515;-52
2023/05/24 08:16:29;;;;;;;14.32;5.28;;;;;;;;;;5081855;28;20240;-50
2023/05/24 08:18:55;;;;;;;9.13;4.97;;;;;;;;;;5083745;28;20223;-51
2023/05/24 08:21:23;;;;;;;16.45;5.53;;;;;;;;;;5083700;28;20239;-51
2023/05/24 08:23:50;;;;;;;9.15;5.00;;;;;;;;;;5078657;28;20235;-50
2023/05/24 08:26:18;;;;;;;7.55;4.40;;;;;;;;;;5068740;28;20231;-51
2023/05/24 08:28:44;;;;;;;10.02;4.80;;;;;;;;;;5080861;28;20238;-51
2023/05/24 08:31:10;;;;;;;11.63;5.20;;;;;;;;;;5079242;28;20723;-51
2023/05/24 08:33:37;;;;;;;16.30;5.00;;;;;;;;;;5083322;28;20695;-52
2023/05/24 08:36:03;;;;;;;8.48;3.60;;;;;;;;;;5077508;28;20253;-52
2023/05/24 08:38:31;;;;;;;18.33;5.68;;;;;;;;;;5082190;28;20234;-53
2023/05/24 08:40:57;;;;;;;13.30;5.18;;;;;;;;;;5077747;28;20314;-53
2023/05/24 08:43:24;;;;;;;11.25;3.70;;;;;;;;;;5075986;28;20744;-51
2023/05/24 08:45:51;;;;;;;5.80;3.55;;;;;;;;;;5077113;28;20228;-52
2023/05/24 08:48:18;;;;;;;10.40;4.47;;;;;;;;;;5084037;28;20656;-52
2023/05/24 08:50:45;;;;;;;18.17;6.38;;;;;;;;;;5082480;28;20610;-59
2023/05/24 08:53:13;;;;;;;15.50;5.10;;;;;;;;;;5076445;28;20618;-52
2023/05/24 08:55:42;;;;;;;11.07;3.85;;;;;;;;;;5081735;28;20235;-51
2023/05/24 08:58:09;;;;;;;9.80;3.90;;;;;;;;;;5078389;28;20309;-55
2023/05/24 09:00:36;;;;;;;6.82;3.83;;;;;;;;;;5080448;28;20313;-50
2023/05/24 09:03:02;;;;;;;11.20;5.35;;;;;;;;;;5080935;28;20759;-52
2023/05/24 09:05:29;;;;;;;11.65;4.45;;;;;;;;;;5082940;28;20325;-53
2023/05/24 09:07:56;;;;;;;7.60;3.97;;;;;;;;;;5080328;28;20249;-51
2023/05/24 09:10:24;;;;;;;11.07;4.85;;;;;;;;;;5084346;28;20700;-51
2023/05/24 09:12:55;;;;;;;16.05;5.63;;;;;;;;;;5082626;28;20234;-51
2023/05/24 09:15:21;;;;;;;9.73;5.25;;;;;;;;;;5074968;28;20254;-52
2023/05/24 09:17:48;;;;;;;9.38;4.40;;;;;;;;;;5084509;28;20234;-51
2023/05/24 09:20:14;;;;;;;12.23;5.68;;;;;;;;;;5079362;28;20237;-52
2023/05/24 09:22:41;;;;;;;13.02;5.82;;;;;;;;;;5078033;28;20230;-53
2023/05/24 09:25:09;;;;;;;11.23;4.70;;;;;;;;;;5073639;28;20254;-52
2023/05/24 09:27:36;;;;;;;11.13;5.13;;;;;;;;;;5080834;28;20254;-50
2023/05/24 09:30:08;;;;;;;5.70;3.63;;;;;;;;;;5083576;28;20234;-51
2023/05/24 09:32:35;;;;;;;10.93;4.90;;;;;;;;;;5067304;28;20308;-54
2023/05/24 09:35:02;;;;;;;8.88;4.50;;;;;;;;;;5065345;28;20230;-52
2023/05/24 09:37:28;;;;;;;7.85;4.68;;;;;;;;;;5072561;28;20283;-52
2023/05/24 09:39:56;;;;;;;7.90;3.55;;;;;;;;;;5080883;28;20576;-51
2023/05/24 09:42:25;;;;;;;14.43;4.38;;;;;;;;;;5083307;28;20239;-52
2023/05/24 09:44:58;;;;;;;9.80;4.35;;;;;;;;;;5083609;28;20230;-51
2023/05/24 09:47:29;;;;;;;15.77;4.75;;;;;;;;;;5079052;28;20236;-53
2023/05/24 09:49:55;;;;;;;9.48;4.35;;;;;;;;;;5073913;28;20712;-51
2023/05/24 09:52:22;;;;;;;11.18;4.10;;;;;;;;;;5078812;28;20492;-52
2023/05/24 09:54:48;;;;;;;13.27;5.20;;;;;;;;;;5080660;28;20313;-52
2023/05/24 09:57:15;;;;;;;5.55;3.25;;;;;;;;;;5080498;28;20326;-52
2023/05/24 09:59:43;;;;;;;9.15;4.22;;;;;;;;;;5080359;28;20233;-52
2023/05/24 10:02:10;;;;;;;9.10;3.92;;;;;;;;;;5080198;28;20724;-52
2023/05/24 10:04:38;;;;;;;8.25;3.47;;;;;;;;;;5079935;28;20231;-51
2023/05/24 10:07:05;;;;;;;9.45;3.15;;;;;;;;;;5078598;28;20760;-53
2023/05/24 10:09:32;;;;;;;7.53;3.90;;;;;;;;;;5080170;28;20938;-51
2023/05/24 10:12:01;;;;;;;7.72;3.65;;;;;;;;;;5073902;28;20262;-51
2023/05/24 10:14:29;;;;;;;8.98;3.80;;;;;;;;;;5079992;28;20843;-52
2023/05/24 10:16:55;;;;;;;5.68;3.53;;;;;;;;;;5079691;28;20234;-52
2023/05/24 10:19:22;;;;;;;9.65;3.67;;;;;;;;;;5079870;28;20851;-51
2023/05/24 10:21:50;;;;;;;11.43;4.03;;;;;;;;;;5073157;28;20317;-53
2023/05/24 10:24:17;;;;;;;16.95;4.65;;;;;;;;;;5079523;28;20230;-52
2023/05/24 10:26:47;;;;;;;9.80;3.45;;;;;;;;;;5081896;28;20257;-51
2023/05/24 10:29:19;;;;;;;15.85;5.05;;;;;;;;;;5080095;28;20783;-53
2023/05/24 10:31:46;;;;;;;8.98;3.78;;;;;;;;;;5079830;28;20755;-52
2023/05/24 10:34:12;;;;;;;6.70;3.33;;;;;;;;;;5078414;28;20300;-53
2023/05/24 10:36:40;;;;;;;9.57;3.35;;;;;;;;;;5077555;28;20325;-51
2023/05/24 10:39:09;;;;;;;9.00;3.70;;;;;;;;;;5079372;28;20226;-53
2023/05/24 10:41:38;;;;;;;7.68;3.50;;;;;;;;;;5084156;28;20248;-52
2023/05/24 10:44:10;;;;;;;6.90;3.28;;;;;;;;;;5085792;28;20218;-52
2023/05/24 10:46:37;;;;;;;5.38;2.92;;;;;;;;;;5089720;28;20314;-52
2023/05/24 10:49:05;;;;;;;13.07;3.97;;;;;;;;;;5089985;28;20306;-51
2023/05/24 10:51:33;;;;;;;4.43;3.40;;;;;;;;;;5085216;28;20258;-52
2023/05/24 10:54:12;;;;;;;8.25;3.25;;;;;;;;;;5079201;28;20306;-52
2023/05/24 10:56:42;;;;;;;4.40;2.38;;;;;;;;;;5079782;28;20245;-52
2023/05/24 10:59:09;;;;;;;5.00;2.67;;;;;;;;;;5082044;28;20233;-51
2023/05/24 11:01:36;;;;;;;6.32;3.08;;;;;;;;;;5079312;28;20237;-52
2023/05/24 11:04:08;;;;;;;8.77;3.50;;;;;;;;;;5081467;28;20231;-52
2023/05/24 11:06:48;;;;;;;13.07;3.53;;;;;;;;;;5083426;28;20297;-52
2023/05/24 11:09:18;;;;;;;4.05;2.88;;;;;;;;;;5070278;28;20344;-52
2023/05/24 11:11:46;;;;;;;3.83;2.47;;;;;;;;;;5069838;28;20231;-51
2023/05/24 11:14:13;;;;;;;6.43;3.13;;;;;;;;;;5066883;28;20280;-54
2023/05/24 11:16:40;;;;;;;8.30;3.38;;;;;;;;;;5082176;28;20226;-52
2023/05/24 11:19:13;;;;;;;4.22;2.38;;;;;;;;;;5084215;28;20226;-53
2023/05/24 11:21:39;;;;;;;4.90;2.65;;;;;;;;;;5081998;28;20238;-50
2023/05/24 11:24:06;;;;;;;5.97;2.50;;;;;;;;;;5082613;28;20234;-52
2023/05/24 11:26:34;;;;;;;3.35;2.50;;;;;;;;;;5088558;28;20708;-51
2023/05/24 11:29:00;;;;;;;4.43;2.88;;;;;;;;;;5085312;28;20236;-53
2023/05/24 11:31:27;;;;;;;5.95;3.17;;;;;;;;;;5084298;28;20241;-52
2023/05/24 11:33:53;;;;;;;8.00;2.88;;;;;;;;;;5075569;28;20252;-51
2023/05/24 11:36:20;;;;;;;4.38;2.30;;;;;;;;;;5086324;28;20696;-55
2023/05/24 11:38:47;;;;;;;5.97;2.22;;;;;;;;;;5088684;28;20694;-51
2023/05/24 11:41:13;;;;;;;3.72;2.60;;;;;;;;;;5084333;28;20658;-54
2023/05/24 11:43:41;;;;;;;5.30;2.55;;;;;;;;;;5088364;27;20283;-53
2023/05/24 11:46:07;;;;;;;4.18;2.70;;;;;;;;;;5081857;28;20242;-52
2023/05/24 11:48:34;;;;;;;6.07;2.88;;;;;;;;;;5076324;28;20268;-52
2023/05/24 11:51:03;;;;;;;4.93;2.92;;;;;;;;;;5083991;28;20235;-51
2023/05/24 11:53:29;;;;;;;8.45;2.70;;;;;;;;;;5076977;28;20296;-52
2023/05/24 11:55:56;;;;;;;7.97;2.85;;;;;;;;;;5085195;28;20280;-51
2023/05/24 11:58:23;;;;;;;5.72;2.78;;;;;;;;;;5084568;28;20256;-53
2023/05/24 12:00:51;;;;;;;6.05;3.35;;;;;;;;;;5081013;28;20638;-51
2023/05/24 12:03:18;;;;;;;6.53;3.15;;;;;;;;;;5081755;28;20650;-51
2023/05/24 12:05:44;;;;;;;4.53;3.08;;;;;;;;;;5084737;28;20230;-52
2023/05/24 12:08:11;;;;;;;11.40;3.83;;;;;;;;;;5083744;28;20230;-52
2023/05/24 12:10:38;;;;;;;5.43;3.03;;;;;;;;;;5079771;28;20743;-51
2023/05/24 12:13:05;;;;;;;7.63;2.65;;;;;;;;;;5083725;28;20230;-52
2023/05/24 12:15:32;;;;;;;5.97;3.03;;;;;;;;;;5087846;28;20257;-51
2023/05/24 12:18:00;;;;;;;7.18;3.30;;;;;;;;;;5081123;28;20235;-51
2023/05/24 12:20:27;;;;;;;5.25;2.90;;;;;;;;;;5075359;28;20258;-51
2023/05/24 12:22:55;;;;;;;4.97;2.67;;;;;;;;;;5079369;28;20234;-52
2023/05/24 12:25:25;;;;;;;5.88;2.85;;;;;;;;;;5079721;28;20644;-51
2023/05/24 12:27:54;;;;;;;7.45;3.33;;;;;;;;;;5082445;28;20692;-52
2023/05/24 12:30:22;;;;;;;3.55;2.53;;;;;;;;;;5082538;28;20227;-52
2023/05/24 12:32:49;;;;;;;9.57;2.90;;;;;;;;;;5083437;28;20238;-54
2023/05/24 12:35:18;;;;;;;8.30;3.00;;;;;;;;;;5081382;28;22539;-52
2023/05/24 12:37:45;;;;;;;6.40;2.47;;;;;;;;;;5081277;28;20712;-54
2023/05/24 12:40:16;;;;;;;5.85;2.30;;;;;;;;;;5073265;28;20222;-51
2023/05/24 12:42:43;;;;;;;6.28;2.58;;;;;;;;;;5074764;28;20239;-51
2023/05/24 12:45:10;;;;;;;4.88;2.70;;;;;;;;;;5079615;28;20223;-53
2023/05/24 12:47:36;;;;;;;5.85;2.53;;;;;;;;;;5081210;28;20346;-51
2023/05/24 12:50:03;;;;;;;7.13;3.45;;;;;;;;;;5084958;28;20226;-50
2023/05/24 12:52:31;;;;;;;5.20;2.70;;;;;;;;;;5079237;28;20239;-51
2023/05/24 12:54:57;;;;;;;4.13;2.95;;;;;;;;;;5084481;28;20254;-52
2023/05/24 12:57:24;;;;;;;5.18;2.67;;;;;;;;;;5080422;28;20632;-52
2023/05/24 12:59:50;;;;;;;4.65;2.60;;;;;;;;;;5082376;28;20309;-52
2023/05/24 13:02:17;;;;;;;4.93;2.88;;;;;;;;;;5079595;28;20231;-51
2023/05/24 13:04:43;;;;;;;10.38;3.65;;;;;;;;;;5085300;28;20234;-55
2023/05/24 13:07:10;;;;;;;6.47;2.42;;;;;;;;;;5079599;28;20233;-52
2023/05/24 13:09:37;;;;;;;6.93;3.15;;;;;;;;;;5088244;28;20411;-52
2023/05/24 13:12:04;;;;;;;6.03;3.22;;;;;;;;;;5079829;28;20298;-56
2023/05/24 13:14:31;;;;;;;7.30;3.78;;;;;;;;;;5088298;28;20250;-52
2023/05/24 13:16:57;;;;;;;6.53;2.65;;;;;;;;;;5086608;28;20262;-51
2023/05/24 13:19:24;;;;;;;8.60;2.78;;;;;;;;;;5082136;28;20326;-53
2023/05/24 13:21:50;;;;;;;11.10;3.85;;;;;;;;;;5085907;28;20256;-53
2023/05/24 13:24:16;;;;;;;6.78;2.95;;;;;;;;;;5086316;28;20879;-52
2023/05/24 13:26:44;;;;;;;5.10;2.67;;;;;;;;;;5084994;28;20325;-55
2023/05/24 13:29:11;;;;;;;3.95;2.97;;;;;;;;;;5083994;28;20253;-51
2023/05/24 13:31:39;;;;;;;7.50;2.92;;;;;;;;;;5085496;28;20237;-54
2023/05/24 13:34:07;;;;;;;7.30;3.35;;;;;;;;;;5083823;28;20258;-52
2023/05/24 13:36:34;;;;;;;7.72;2.95;;;;;;;;;;5086025;28;20299;-51
2023/05/24 13:39:00;;;;;;;5.13;3.22;;;;;;;;;;5080445;28;20247;-51
2023/05/24 13:41:27;;;;;;;7.07;2.65;;;;;;;;;;5086046;28;20252;-51
2023/05/24 13:43:55;;;;;;;5.45;3.47;;;;;;;;;;5090697;28;20230;-52
2023/05/24 13:46:22;;;;;;;8.30;3.20;;;;;;;;;;5087725;28;21686;-52
2023/05/24 13:48:48;;;;;;;4.55;2.80;;;;;;;;;;5087381;28;20237;-52
2023/05/24 13:51:17;;;;;;;5.10;2.63;;;;;;;;;;5082822;28;20634;-51
2023/05/24 13:53:43;;;;;;;5.93;3.38;;;;;;;;;;5077422;28;20242;-51
2023/05/24 13:56:10;;;;;;;7.45;3.22;;;;;;;;;;5082523;28;20698;-52
2023/05/24 13:58:37;;;;;;;8.88;3.58;;;;;;;;;;5081609;28;20273;-53
2023/05/24 14:01:05;;;;;;;8.32;3.75;;;;;;;;;;5081429;28;20317;-53
2023/05/24 14:03:31;;;;;;;8.23;3.58;;;;;;;;;;5081767;28;20234;-52
2023/05/24 14:05:58;;;;;;;7.68;3.50;;;;;;;;;;5076257;28;20231;-50
2023/05/24 14:08:26;;;;;;;8.43;4.05;;;;;;;;;;5081912;28;20229;-50
2023/05/24 14:10:55;;;;;;;7.85;2.90;;;;;;;;;;5076604;28;20305;-54
2023/05/24 14:13:22;;;;;;;7.30;3.85;;;;;;;;;;5081725;28;21195;-51
2023/05/24 14:15:49;;;;;;;4.13;3.30;;;;;;;;;;5080305;28;20759;-53
2023/05/24 14:18:17;;;;;;;6.68;3.00;;;;;;;;;;5082535;28;20226;-52
2023/05/24 14:20:44;;;;;;;4.80;3.60;;;;;;;;;;5076235;28;20249;-51
2023/05/24 14:23:10;;;;;;;7.00;3.40;;;;;;;;;;5077540;28;20242;-51
2023/05/24 14:25:36;;;;;;;4.68;3.15;;;;;;;;;;5078860;28;20373;-52
2023/05/24 14:28:03;;;;;;;8.25;2.63;;;;;;;;;;5077749;28;20720;-51
2023/05/24 14:30:30;;;;;;;5.30;2.92;;;;;;;;;;5072341;28;20231;-50
2023/05/24 14:32:57;;;;;;;6.68;3.28;;;;;;;;;;5075926;28;20246;-51
2023/05/24 14:35:25;;;;;;;9.07;3.05;;;;;;;;;;5080581;28;20239;-52
2023/05/24 14:37:52;;;;;;;7.97;3.20;;;;;;;;;;5082722;28;20230;-50